sensor_id;sensor_type;location;lat;lon;timestamp;temperature;humidity
71039;SHT30;58692;43.212;27.908;2022-07-06T00:01:48;21.99;67.67
71039;SHT30;58692;43.212;27.908;2022-07-06T00:04:16;21.72;68.41
71039;SHT30;58692;43.212;27.908;2022-07-06T00:06:41;21.79;68.00
71039;SHT30;58692;43.212;27.908;2022-07-06T00:09:07;21.85;67.92
71039;SHT30;58692;43.212;27.908;2022-07-06T00:11:32;21.82;68.09
71039;SHT30;58692;43.212;27.908;2022-07-06T00:13:58;21.85;67.54
71039;SHT30;58692;43.212;27.908;2022-07-06T00:16:24;21.92;66.99
71039;SHT30;58692;43.212;27.908;2022-07-06T00:18:50;21.88;66.27
71039;SHT30;58692;43.212;27.908;2022-07-06T00:21:16;21.97;65.51
71039;SHT30;58692;43.212;27.908;2022-07-06T00:23:42;21.96;65.31
71039;SHT30;58692;43.212;27.908;2022-07-06T00:26:08;21.99;65.13
71039;SHT30;58692;43.212;27.908;2022-07-06T00:28:34;22.02;64.93
71039;SHT30;58692;43.212;27.908;2022-07-06T00:31:00;22.05;64.76
71039;SHT30;58692;43.212;27.908;2022-07-06T00:33:25;21.95;64.81
71039;SHT30;58692;43.212;27.908;2022-07-06T00:35:51;21.85;64.97
71039;SHT30;58692;43.212;27.908;2022-07-06T00:38:16;21.85;65.06
71039;SHT30;58692;43.212;27.908;2022-07-06T00:40:42;21.86;65.33
71039;SHT30;58692;43.212;27.908;2022-07-06T00:43:07;21.86;65.34
71039;SHT30;58692;43.212;27.908;2022-07-06T00:45:33;21.89;65.25
71039;SHT30;58692;43.212;27.908;2022-07-06T00:47:59;21.78;65.70
71039;SHT30;58692;43.212;27.908;2022-07-06T00:50:24;21.81;65.57
71039;SHT30;58692;43.212;27.908;2022-07-06T00:52:51;21.93;64.98
71039;SHT30;58692;43.212;27.908;2022-07-06T00:55:20;21.82;65.01
71039;SHT30;58692;43.212;27.908;2022-07-06T00:57:46;21.92;64.48
71039;SHT30;58692;43.212;27.908;2022-07-06T01:00:14;21.97;64.12
71039;SHT30;58692;43.212;27.908;2022-07-06T01:02:41;21.95;64.12
71039;SHT30;58692;43.212;27.908;2022-07-06T01:05:09;21.96;63.99
71039;SHT30;58692;43.212;27.908;2022-07-06T01:07:35;21.89;63.56
71039;SHT30;58692;43.212;27.908;2022-07-06T01:10:03;21.92;63.50
71039;SHT30;58692;43.212;27.908;2022-07-06T01:12:29;21.86;63.89
71039;SHT30;58692;43.212;27.908;2022-07-06T01:14:56;21.90;64.05
71039;SHT30;58692;43.212;27.908;2022-07-06T01:17:21;21.95;64.11
71039;SHT30;58692;43.212;27.908;2022-07-06T01:19:47;21.79;64.69
71039;SHT30;58692;43.212;27.908;2022-07-06T01:22:13;21.75;64.95
71039;SHT30;58692;43.212;27.908;2022-07-06T01:24:38;21.69;65.28
71039;SHT30;58692;43.212;27.908;2022-07-06T01:27:05;21.69;65.20
71039;SHT30;58692;43.212;27.908;2022-07-06T01:29:31;21.63;65.36
71039;SHT30;58692;43.212;27.908;2022-07-06T01:31:58;21.65;65.21
71039;SHT30;58692;43.212;27.908;2022-07-06T01:34:23;21.65;65.30
71039;SHT30;58692;43.212;27.908;2022-07-06T01:36:49;21.62;65.28
71039;SHT30;58692;43.212;27.908;2022-07-06T01:39:15;21.49;65.65
71039;SHT30;58692;43.212;27.908;2022-07-06T01:41:40;21.37;66.16
71039;SHT30;58692;43.212;27.908;2022-07-06T01:44:06;21.41;65.98
71039;SHT30;58692;43.212;27.908;2022-07-06T01:46:32;21.48;66.08
71039;SHT30;58692;43.212;27.908;2022-07-06T01:48:58;21.38;66.40
71039;SHT30;58692;43.212;27.908;2022-07-06T01:51:23;21.37;66.62
71039;SHT30;58692;43.212;27.908;2022-07-06T01:53:50;21.32;66.78
71039;SHT30;58692;43.212;27.908;2022-07-06T01:56:16;21.25;66.79
71039;SHT30;58692;43.212;27.908;2022-07-06T01:58:44;21.24;66.85
71039;SHT30;58692;43.212;27.908;2022-07-06T02:01:13;21.31;66.51
71039;SHT30;58692;43.212;27.908;2022-07-06T02:03:40;21.38;66.13
71039;SHT30;58692;43.212;27.908;2022-07-06T02:06:06;21.35;66.01
71039;SHT30;58692;43.212;27.908;2022-07-06T02:08:33;21.25;66.25
71039;SHT30;58692;43.212;27.908;2022-07-06T02:10:59;21.24;66.29
71039;SHT30;58692;43.212;27.908;2022-07-06T02:13:25;21.35;66.14
71039;SHT30;58692;43.212;27.908;2022-07-06T02:15:50;21.31;66.13
71039;SHT30;58692;43.212;27.908;2022-07-06T02:18:16;21.35;65.98
71039;SHT30;58692;43.212;27.908;2022-07-06T02:20:42;21.31;66.08
71039;SHT30;58692;43.212;27.908;2022-07-06T02:23:08;21.32;66.00
71039;SHT30;58692;43.212;27.908;2022-07-06T02:25:34;21.31;66.12
71039;SHT30;58692;43.212;27.908;2022-07-06T02:27:59;21.38;65.94
71039;SHT30;58692;43.212;27.908;2022-07-06T02:30:25;21.32;66.05
71039;SHT30;58692;43.212;27.908;2022-07-06T02:32:51;21.39;65.78
71039;SHT30;58692;43.212;27.908;2022-07-06T02:35:16;21.34;66.03
71039;SHT30;58692;43.212;27.908;2022-07-06T02:37:42;21.24;66.38
71039;SHT30;58692;43.212;27.908;2022-07-06T02:40:08;21.28;66.30
71039;SHT30;58692;43.212;27.908;2022-07-06T02:42:34;21.12;66.77
71039;SHT30;58692;43.212;27.908;2022-07-06T02:45:00;21.27;66.29
71039;SHT30;58692;43.212;27.908;2022-07-06T02:47:25;21.31;66.08
71039;SHT30;58692;43.212;27.908;2022-07-06T02:49:51;21.31;65.75
71039;SHT30;58692;43.212;27.908;2022-07-06T02:52:18;21.31;65.57
71039;SHT30;58692;43.212;27.908;2022-07-06T02:54:43;21.25;65.69
71039;SHT30;58692;43.212;27.908;2022-07-06T02:57:09;21.25;65.75
71039;SHT30;58692;43.212;27.908;2022-07-06T02:59:35;21.28;65.73
71039;SHT30;58692;43.212;27.908;2022-07-06T03:02:03;21.22;67.13
71039;SHT30;58692;43.212;27.908;2022-07-06T03:04:29;21.28;67.37
71039;SHT30;58692;43.212;27.908;2022-07-06T03:06:55;21.32;67.13
71039;SHT30;58692;43.212;27.908;2022-07-06T03:09:20;21.32;66.63
71039;SHT30;58692;43.212;27.908;2022-07-06T03:11:46;21.39;66.14
71039;SHT30;58692;43.212;27.908;2022-07-06T03:14:12;21.30;66.66
71039;SHT30;58692;43.212;27.908;2022-07-06T03:16:37;21.34;67.20
71039;SHT30;58692;43.212;27.908;2022-07-06T03:19:03;21.31;67.59
71039;SHT30;58692;43.212;27.908;2022-07-06T03:21:28;21.42;67.30
71039;SHT30;58692;43.212;27.908;2022-07-06T03:23:54;21.45;67.17
71039;SHT30;58692;43.212;27.908;2022-07-06T03:26:19;21.58;66.22
71039;SHT30;58692;43.212;27.908;2022-07-06T03:28:45;21.66;65.80
71039;SHT30;58692;43.212;27.908;2022-07-06T03:31:11;21.69;65.26
71039;SHT30;58692;43.212;27.908;2022-07-06T03:33:36;21.65;65.18
71039;SHT30;58692;43.212;27.908;2022-07-06T03:36:02;21.71;64.76
71039;SHT30;58692;43.212;27.908;2022-07-06T03:38:28;21.72;64.78
71039;SHT30;58692;43.212;27.908;2022-07-06T03:40:53;21.83;64.33
71039;SHT30;58692;43.212;27.908;2022-07-06T03:43:19;22.07;63.76
71039;SHT30;58692;43.212;27.908;2022-07-06T03:45:44;22.33;63.03
71039;SHT30;58692;43.212;27.908;2022-07-06T03:48:10;22.58;62.10
71039;SHT30;58692;43.212;27.908;2022-07-06T03:50:35;22.95;61.03
71039;SHT30;58692;43.212;27.908;2022-07-06T03:53:01;23.12;59.90
71039;SHT30;58692;43.212;27.908;2022-07-06T03:55:27;23.23;59.60
71039;SHT30;58692;43.212;27.908;2022-07-06T03:57:52;23.28;59.36
71039;SHT30;58692;43.212;27.908;2022-07-06T04:00:18;23.31;59.15
71039;SHT30;58692;43.212;27.908;2022-07-06T04:02:43;23.35;59.14
71039;SHT30;58692;43.212;27.908;2022-07-06T04:05:09;23.28;59.39
71039;SHT30;58692;43.212;27.908;2022-07-06T04:07:34;23.31;59.08
71039;SHT30;58692;43.212;27.908;2022-07-06T04:10:00;23.39;59.02
71039;SHT30;58692;43.212;27.908;2022-07-06T04:12:26;23.50;58.75
71039;SHT30;58692;43.212;27.908;2022-07-06T04:14:51;23.73;58.05
71039;SHT30;58692;43.212;27.908;2022-07-06T04:17:17;23.84;57.50
71039;SHT30;58692;43.212;27.908;2022-07-06T04:19:58;24.00;56.84
71039;SHT30;58692;43.212;27.908;2022-07-06T04:22:23;24.28;56.02
71039;SHT30;58692;43.212;27.908;2022-07-06T04:24:49;24.37;55.49
71039;SHT30;58692;43.212;27.908;2022-07-06T04:27:14;24.41;55.49
71039;SHT30;58692;43.212;27.908;2022-07-06T04:29:40;24.67;54.87
71039;SHT30;58692;43.212;27.908;2022-07-06T04:32:06;24.81;54.33
71039;SHT30;58692;43.212;27.908;2022-07-06T04:34:44;24.89;53.80
71039;SHT30;58692;43.212;27.908;2022-07-06T04:37:09;25.20;52.94
71039;SHT30;58692;43.212;27.908;2022-07-06T04:39:35;25.18;52.95
71039;SHT30;58692;43.212;27.908;2022-07-06T04:42:00;24.96;53.60
71039;SHT30;58692;43.212;27.908;2022-07-06T04:44:26;25.47;52.76
71039;SHT30;58692;43.212;27.908;2022-07-06T04:46:51;25.37;53.48
71039;SHT30;58692;43.212;27.908;2022-07-06T04:49:24;25.32;53.36
71039;SHT30;58692;43.212;27.908;2022-07-06T04:51:50;25.71;52.57
71039;SHT30;58692;43.212;27.908;2022-07-06T04:54:15;25.50;52.85
71039;SHT30;58692;43.212;27.908;2022-07-06T04:56:41;25.71;52.68
71039;SHT30;58692;43.212;27.908;2022-07-06T04:59:06;26.27;51.60
71039;SHT30;58692;43.212;27.908;2022-07-06T05:01:32;25.91;52.41
71039;SHT30;58692;43.212;27.908;2022-07-06T05:03:57;26.14;51.83
71039;SHT30;58692;43.212;27.908;2022-07-06T05:06:23;25.91;52.03
71039;SHT30;58692;43.212;27.908;2022-07-06T05:08:48;26.59;50.78
71039;SHT30;58692;43.212;27.908;2022-07-06T05:11:14;26.40;51.23
71039;SHT30;58692;43.212;27.908;2022-07-06T05:13:40;26.71;50.93
71039;SHT30;58692;43.212;27.908;2022-07-06T05:16:05;27.02;50.73
71039;SHT30;58692;43.212;27.908;2022-07-06T05:18:31;26.91;50.89
71039;SHT30;58692;43.212;27.908;2022-07-06T05:20:56;27.33;50.17
71039;SHT30;58692;43.212;27.908;2022-07-06T05:23:22;27.73;49.08
71039;SHT30;58692;43.212;27.908;2022-07-06T05:25:47;27.90;48.69
71039;SHT30;58692;43.212;27.908;2022-07-06T05:28:13;28.28;48.00
71039;SHT30;58692;43.212;27.908;2022-07-06T05:30:38;28.21;47.98
71039;SHT30;58692;43.212;27.908;2022-07-06T05:33:04;28.21;48.28
71039;SHT30;58692;43.212;27.908;2022-07-06T05:35:29;28.42;46.54
71039;SHT30;58692;43.212;27.908;2022-07-06T05:37:55;28.55;46.19
71039;SHT30;58692;43.212;27.908;2022-07-06T05:40:21;28.86;46.41
71039;SHT30;58692;43.212;27.908;2022-07-06T05:42:46;28.75;47.03
71039;SHT30;58692;43.212;27.908;2022-07-06T05:45:12;28.48;48.22
71039;SHT30;58692;43.212;27.908;2022-07-06T05:47:38;28.75;46.93
71039;SHT30;58692;43.212;27.908;2022-07-06T05:50:19;28.73;46.30
71039;SHT30;58692;43.212;27.908;2022-07-06T05:52:55;29.17;45.81
71039;SHT30;58692;43.212;27.908;2022-07-06T05:55:21;28.78;46.23
71039;SHT30;58692;43.212;27.908;2022-07-06T05:57:46;29.35;45.72
71039;SHT30;58692;43.212;27.908;2022-07-06T06:00:12;29.41;45.34
71039;SHT30;58692;43.212;27.908;2022-07-06T06:02:39;29.74;44.79
71039;SHT30;58692;43.212;27.908;2022-07-06T06:05:07;29.86;44.65
71039;SHT30;58692;43.212;27.908;2022-07-06T06:07:34;29.72;45.04
71039;SHT30;58692;43.212;27.908;2022-07-06T06:10:00;29.95;44.78
71039;SHT30;58692;43.212;27.908;2022-07-06T06:12:26;29.60;45.37
71039;SHT30;58692;43.212;27.908;2022-07-06T06:14:51;30.01;44.79
71039;SHT30;58692;43.212;27.908;2022-07-06T06:17:17;30.35;44.03
71039;SHT30;58692;43.212;27.908;2022-07-06T06:19:42;30.69;43.67
71039;SHT30;58692;43.212;27.908;2022-07-06T06:22:08;30.91;42.89
71039;SHT30;58692;43.212;27.908;2022-07-06T06:24:34;30.83;42.88
71039;SHT30;58692;43.212;27.908;2022-07-06T06:26:59;30.46;43.44
71039;SHT30;58692;43.212;27.908;2022-07-06T06:29:54;30.62;43.23
71039;SHT30;58692;43.212;27.908;2022-07-06T06:32:19;30.91;42.62
71039;SHT30;58692;43.212;27.908;2022-07-06T06:34:45;31.01;42.74
71039;SHT30;58692;43.212;27.908;2022-07-06T06:37:10;31.35;41.92
71039;SHT30;58692;43.212;27.908;2022-07-06T06:39:36;31.62;41.52
71039;SHT30;58692;43.212;27.908;2022-07-06T06:42:02;30.96;42.13
71039;SHT30;58692;43.212;27.908;2022-07-06T06:44:27;30.73;41.80
71039;SHT30;58692;43.212;27.908;2022-07-06T06:46:53;30.80;41.58
71039;SHT30;58692;43.212;27.908;2022-07-06T06:49:18;31.27;40.50
71039;SHT30;58692;43.212;27.908;2022-07-06T06:51:44;31.04;40.32
71039;SHT30;58692;43.212;27.908;2022-07-06T06:54:16;30.91;40.68
71039;SHT30;58692;43.212;27.908;2022-07-06T06:56:42;31.49;39.14
71039;SHT30;58692;43.212;27.908;2022-07-06T06:59:16;31.84;38.50
71039;SHT30;58692;43.212;27.908;2022-07-06T07:02:04;31.39;39.17
71039;SHT30;58692;43.212;27.908;2022-07-06T07:04:32;31.90;38.27
71039;SHT30;58692;43.212;27.908;2022-07-06T07:06:58;32.49;37.46
71039;SHT30;58692;43.212;27.908;2022-07-06T07:09:26;32.99;36.93
71039;SHT30;58692;43.212;27.908;2022-07-06T07:11:52;33.07;36.11
71039;SHT30;58692;43.212;27.908;2022-07-06T07:14:17;33.61;35.62
71039;SHT30;58692;43.212;27.908;2022-07-06T07:16:43;33.63;35.28
71039;SHT30;58692;43.212;27.908;2022-07-06T07:19:09;33.91;34.54
71039;SHT30;58692;43.212;27.908;2022-07-06T07:21:37;33.88;34.78
71039;SHT30;58692;43.212;27.908;2022-07-06T07:24:02;32.84;35.94
71039;SHT30;58692;43.212;27.908;2022-07-06T07:26:28;32.59;36.70
71039;SHT30;58692;43.212;27.908;2022-07-06T07:28:53;32.66;35.98
71039;SHT30;58692;43.212;27.908;2022-07-06T07:31:19;33.37;34.79
71039;SHT30;58692;43.212;27.908;2022-07-06T07:33:45;33.95;34.28
71039;SHT30;58692;43.212;27.908;2022-07-06T07:36:10;34.43;33.46
71039;SHT30;58692;43.212;27.908;2022-07-06T07:38:36;34.32;33.64
71039;SHT30;58692;43.212;27.908;2022-07-06T07:41:01;33.66;34.20
71039;SHT30;58692;43.212;27.908;2022-07-06T07:43:27;34.26;33.30
71039;SHT30;58692;43.212;27.908;2022-07-06T07:45:53;34.12;32.30
71039;SHT30;58692;43.212;27.908;2022-07-06T07:48:18;34.93;31.23
71039;SHT30;58692;43.212;27.908;2022-07-06T07:50:44;35.18;31.04
71039;SHT30;58692;43.212;27.908;2022-07-06T07:53:10;35.33;29.58
71039;SHT30;58692;43.212;27.908;2022-07-06T07:55:35;35.41;29.42
71039;SHT30;58692;43.212;27.908;2022-07-06T07:58:01;35.54;29.19
71039;SHT30;58692;43.212;27.908;2022-07-06T08:00:26;35.74;28.78
71039;SHT30;58692;43.212;27.908;2022-07-06T08:02:54;34.37;30.13
71039;SHT30;58692;43.212;27.908;2022-07-06T08:05:20;33.57;31.24
71039;SHT30;58692;43.212;27.908;2022-07-06T08:07:45;33.86;30.58
71039;SHT30;58692;43.212;27.908;2022-07-06T08:10:11;34.42;30.36
71039;SHT30;58692;43.212;27.908;2022-07-06T08:12:37;34.06;30.64
71039;SHT30;58692;43.212;27.908;2022-07-06T08:15:09;34.19;30.28
71039;SHT30;58692;43.212;27.908;2022-07-06T08:17:35;33.66;30.92
71039;SHT30;58692;43.212;27.908;2022-07-06T08:20:00;33.45;30.62
71039;SHT30;58692;43.212;27.908;2022-07-06T08:22:26;33.12;31.18
71039;SHT30;58692;43.212;27.908;2022-07-06T08:24:52;33.48;30.94
71039;SHT30;58692;43.212;27.908;2022-07-06T08:27:24;33.72;30.81
71039;SHT30;58692;43.212;27.908;2022-07-06T08:29:52;33.63;30.31
71039;SHT30;58692;43.212;27.908;2022-07-06T08:32:18;33.57;31.88
71039;SHT30;58692;43.212;27.908;2022-07-06T08:34:45;33.32;31.21
71039;SHT30;58692;43.212;27.908;2022-07-06T08:37:11;34.02;31.80
71039;SHT30;58692;43.212;27.908;2022-07-06T08:39:36;33.55;32.45
71039;SHT30;58692;43.212;27.908;2022-07-06T08:42:02;33.73;31.20
71039;SHT30;58692;43.212;27.908;2022-07-06T08:44:29;33.91;30.48
71039;SHT30;58692;43.212;27.908;2022-07-06T08:46:57;33.89;30.38
71039;SHT30;58692;43.212;27.908;2022-07-06T08:49:23;33.93;31.45
71039;SHT30;58692;43.212;27.908;2022-07-06T08:51:53;33.79;29.84
71039;SHT30;58692;43.212;27.908;2022-07-06T08:54:38;33.83;30.43
71039;SHT30;58692;43.212;27.908;2022-07-06T08:57:03;34.05;30.06
71039;SHT30;58692;43.212;27.908;2022-07-06T08:59:29;35.23;29.20
71039;SHT30;58692;43.212;27.908;2022-07-06T09:01:55;35.30;29.27
71039;SHT30;58692;43.212;27.908;2022-07-06T09:04:22;35.21;28.49
71039;SHT30;58692;43.212;27.908;2022-07-06T09:06:49;34.53;29.38
71039;SHT30;58692;43.212;27.908;2022-07-06T09:09:20;34.06;30.11
71039;SHT30;58692;43.212;27.908;2022-07-06T09:11:46;33.86;30.58
71039;SHT30;58692;43.212;27.908;2022-07-06T09:14:13;33.93;30.38
71039;SHT30;58692;43.212;27.908;2022-07-06T09:16:38;33.82;31.22
71039;SHT30;58692;43.212;27.908;2022-07-06T09:19:05;33.76;32.05
71039;SHT30;58692;43.212;27.908;2022-07-06T09:21:31;33.96;32.11
71039;SHT30;58692;43.212;27.908;2022-07-06T09:24:09;34.15;31.19
71039;SHT30;58692;43.212;27.908;2022-07-06T09:26:52;33.58;31.73
71039;SHT30;58692;43.212;27.908;2022-07-06T09:29:27;33.08;32.41
71039;SHT30;58692;43.212;27.908;2022-07-06T09:32:02;33.25;33.62
71039;SHT30;58692;43.212;27.908;2022-07-06T09:34:44;33.54;32.40
71039;SHT30;58692;43.212;27.908;2022-07-06T09:37:11;33.76;33.56
71039;SHT30;58692;43.212;27.908;2022-07-06T09:39:37;34.06;32.33
71039;SHT30;58692;43.212;27.908;2022-07-06T09:42:04;34.31;33.20
71039;SHT30;58692;43.212;27.908;2022-07-06T09:44:34;34.19;33.06
71039;SHT30;58692;43.212;27.908;2022-07-06T09:47:03;33.99;31.95
71039;SHT30;58692;43.212;27.908;2022-07-06T09:49:29;34.42;31.87
71039;SHT30;58692;43.212;27.908;2022-07-06T09:51:56;33.93;33.12
71039;SHT30;58692;43.212;27.908;2022-07-06T09:54:22;34.67;32.62
71039;SHT30;58692;43.212;27.908;2022-07-06T09:56:50;34.71;30.55
71039;SHT30;58692;43.212;27.908;2022-07-06T09:59:18;35.03;30.54
71039;SHT30;58692;43.212;27.908;2022-07-06T10:01:46;35.64;30.26
71039;SHT30;58692;43.212;27.908;2022-07-06T10:04:13;35.52;30.18
71039;SHT30;58692;43.212;27.908;2022-07-06T10:06:39;36.25;29.75
71039;SHT30;58692;43.212;27.908;2022-07-06T10:09:07;36.64;29.16
71039;SHT30;58692;43.212;27.908;2022-07-06T10:14:49;35.28;30.88
71039;SHT30;58692;43.212;27.908;2022-07-06T10:17:30;35.59;31.59
71039;SHT30;58692;43.212;27.908;2022-07-06T10:19:56;36.18;29.80
71039;SHT30;58692;43.212;27.908;2022-07-06T10:22:22;36.49;29.77
71039;SHT30;58692;43.212;27.908;2022-07-06T10:25:01;36.16;29.55
71039;SHT30;58692;43.212;27.908;2022-07-06T10:27:28;35.23;30.89
71039;SHT30;58692;43.212;27.908;2022-07-06T10:29:53;34.64;32.51
71039;SHT30;58692;43.212;27.908;2022-07-06T10:32:20;35.35;31.36
71039;SHT30;58692;43.212;27.908;2022-07-06T10:34:49;34.98;31.55
71039;SHT30;58692;43.212;27.908;2022-07-06T10:37:27;34.87;31.78
71039;SHT30;58692;43.212;27.908;2022-07-06T10:39:53;34.88;30.86
71039;SHT30;58692;43.212;27.908;2022-07-06T10:42:47;35.74;30.62
71039;SHT30;58692;43.212;27.908;2022-07-06T10:45:51;34.59;31.86
71039;SHT30;58692;43.212;27.908;2022-07-06T10:48:18;35.35;31.05
71039;SHT30;58692;43.212;27.908;2022-07-06T10:53:11;35.49;30.41
71039;SHT30;58692;43.212;27.908;2022-07-06T10:55:40;35.51;30.94
71039;SHT30;58692;43.212;27.908;2022-07-06T10:58:06;35.47;30.60
71039;SHT30;58692;43.212;27.908;2022-07-06T11:05:59;35.18;32.50
71039;SHT30;58692;43.212;27.908;2022-07-06T11:11:24;33.82;32.42
71039;SHT30;58692;43.212;27.908;2022-07-06T11:13:57;32.99;35.52
71039;SHT30;58692;43.212;27.908;2022-07-06T11:16:25;33.50;37.48
71039;SHT30;58692;43.212;27.908;2022-07-06T11:19:01;33.40;36.42
71039;SHT30;58692;43.212;27.908;2022-07-06T11:24:13;33.44;38.19
71039;SHT30;58692;43.212;27.908;2022-07-06T11:26:39;33.88;37.37
71039;SHT30;58692;43.212;27.908;2022-07-06T11:29:07;33.58;37.75
71039;SHT30;58692;43.212;27.908;2022-07-06T11:31:37;33.51;37.22
71039;SHT30;58692;43.212;27.908;2022-07-06T11:34:05;33.76;36.90
71039;SHT30;58692;43.212;27.908;2022-07-06T11:36:31;34.06;36.45
71039;SHT30;58692;43.212;27.908;2022-07-06T11:38:56;34.54;35.06
71039;SHT30;58692;43.212;27.908;2022-07-06T11:41:22;34.01;35.77
71039;SHT30;58692;43.212;27.908;2022-07-06T11:43:48;33.50;37.48
71039;SHT30;58692;43.212;27.908;2022-07-06T11:46:20;33.71;37.21
71039;SHT30;58692;43.212;27.908;2022-07-06T11:48:48;33.66;36.34
71039;SHT30;58692;43.212;27.908;2022-07-06T11:51:14;33.20;37.38
71039;SHT30;58692;43.212;27.908;2022-07-06T11:53:48;33.07;37.96
71039;SHT30;58692;43.212;27.908;2022-07-06T11:56:15;33.17;38.25
71039;SHT30;58692;43.212;27.908;2022-07-06T11:58:45;32.87;38.27
71039;SHT30;58692;43.212;27.908;2022-07-06T12:01:13;33.38;38.01
71039;SHT30;58692;43.212;27.908;2022-07-06T12:03:39;32.49;38.71
71039;SHT30;58692;43.212;27.908;2022-07-06T12:06:10;31.92;40.08
71039;SHT30;58692;43.212;27.908;2022-07-06T12:08:42;31.52;41.27
71039;SHT30;58692;43.212;27.908;2022-07-06T12:11:08;31.35;41.33
71039;SHT30;58692;43.212;27.908;2022-07-06T12:13:37;30.83;44.15
71039;SHT30;58692;43.212;27.908;2022-07-06T12:16:12;30.37;45.26
71039;SHT30;58692;43.212;27.908;2022-07-06T12:18:39;30.19;45.64
71039;SHT30;58692;43.212;27.908;2022-07-06T12:21:10;29.70;46.91
71039;SHT30;58692;43.212;27.908;2022-07-06T12:23:40;29.29;46.85
71039;SHT30;58692;43.212;27.908;2022-07-06T12:26:06;29.09;48.86
71039;SHT30;58692;43.212;27.908;2022-07-06T12:28:32;29.19;48.07
71039;SHT30;58692;43.212;27.908;2022-07-06T12:30:58;29.11;49.55
71039;SHT30;58692;43.212;27.908;2022-07-06T12:33:23;28.95;49.29
71039;SHT30;58692;43.212;27.908;2022-07-06T12:35:49;28.96;50.71
71039;SHT30;58692;43.212;27.908;2022-07-06T12:38:26;28.92;51.38
71039;SHT30;58692;43.212;27.908;2022-07-06T12:40:53;28.76;52.33
71039;SHT30;58692;43.212;27.908;2022-07-06T12:43:34;28.97;52.41
71039;SHT30;58692;43.212;27.908;2022-07-06T12:46:28;29.23;52.62
71039;SHT30;58692;43.212;27.908;2022-07-06T12:48:56;28.92;52.53
71039;SHT30;58692;43.212;27.908;2022-07-06T12:51:22;29.02;51.84
71039;SHT30;58692;43.212;27.908;2022-07-06T12:53:48;28.66;53.23
71039;SHT30;58692;43.212;27.908;2022-07-06T12:56:15;28.45;53.16
71039;SHT30;58692;43.212;27.908;2022-07-06T12:58:57;28.58;53.45
71039;SHT30;58692;43.212;27.908;2022-07-06T13:01:23;28.76;52.62
71039;SHT30;58692;43.212;27.908;2022-07-06T13:03:53;28.51;53.34
71039;SHT30;58692;43.212;27.908;2022-07-06T13:06:35;28.73;53.54
71039;SHT30;58692;43.212;27.908;2022-07-06T13:09:02;28.56;53.48
71039;SHT30;58692;43.212;27.908;2022-07-06T13:11:28;28.76;52.75
71039;SHT30;58692;43.212;27.908;2022-07-06T13:13:53;28.65;53.09
71039;SHT30;58692;43.212;27.908;2022-07-06T13:16:19;28.53;52.80
71039;SHT30;58692;43.212;27.908;2022-07-06T13:18:45;28.52;52.78
71039;SHT30;58692;43.212;27.908;2022-07-06T13:21:10;28.60;52.94
71039;SHT30;58692;43.212;27.908;2022-07-06T13:23:36;28.49;53.64
71039;SHT30;58692;43.212;27.908;2022-07-06T13:26:02;28.41;53.46
71039;SHT30;58692;43.212;27.908;2022-07-06T13:28:27;28.34;53.33
71039;SHT30;58692;43.212;27.908;2022-07-06T13:30:53;28.52;53.69
71039;SHT30;58692;43.212;27.908;2022-07-06T13:33:18;28.46;53.57
71039;SHT30;58692;43.212;27.908;2022-07-06T13:35:44;28.44;54.40
71039;SHT30;58692;43.212;27.908;2022-07-06T13:38:09;28.41;54.45
71039;SHT30;58692;43.212;27.908;2022-07-06T13:40:35;28.52;54.01
71039;SHT30;58692;43.212;27.908;2022-07-06T13:43:01;28.59;53.43
71039;SHT30;58692;43.212;27.908;2022-07-06T13:45:26;28.53;53.46
71039;SHT30;58692;43.212;27.908;2022-07-06T13:47:52;28.36;54.11
71039;SHT30;58692;43.212;27.908;2022-07-06T13:50:17;28.60;53.50
71039;SHT30;58692;43.212;27.908;2022-07-06T13:52:43;28.34;52.62
71039;SHT30;58692;43.212;27.908;2022-07-06T13:55:09;28.24;53.82
71039;SHT30;58692;43.212;27.908;2022-07-06T13:57:35;28.36;53.85
71039;SHT30;58692;43.212;27.908;2022-07-06T14:00:00;28.49;53.37
71039;SHT30;58692;43.212;27.908;2022-07-06T14:02:26;28.62;52.79
71039;SHT30;58692;43.212;27.908;2022-07-06T14:04:51;28.35;54.71
71039;SHT30;58692;43.212;27.908;2022-07-06T14:07:17;28.46;54.62
71039;SHT30;58692;43.212;27.908;2022-07-06T14:09:42;28.44;54.10
71039;SHT30;58692;43.212;27.908;2022-07-06T14:12:08;28.34;54.53
71039;SHT30;58692;43.212;27.908;2022-07-06T14:14:34;28.05;55.69
71039;SHT30;58692;43.212;27.908;2022-07-06T14:16:59;28.07;55.36
71039;SHT30;58692;43.212;27.908;2022-07-06T14:19:25;28.01;55.29
71039;SHT30;58692;43.212;27.908;2022-07-06T14:21:51;28.07;56.56
71039;SHT30;58692;43.212;27.908;2022-07-06T14:24:17;27.88;56.83
71039;SHT30;58692;43.212;27.908;2022-07-06T14:26:43;27.80;56.07
71039;SHT30;58692;43.212;27.908;2022-07-06T14:29:09;27.68;57.70
71039;SHT30;58692;43.212;27.908;2022-07-06T14:31:34;27.76;56.59
71039;SHT30;58692;43.212;27.908;2022-07-06T14:34:00;27.98;56.82
71039;SHT30;58692;43.212;27.908;2022-07-06T14:36:25;28.08;56.82
71039;SHT30;58692;43.212;27.908;2022-07-06T14:38:51;27.98;56.85
71039;SHT30;58692;43.212;27.908;2022-07-06T14:41:16;27.85;57.91
71039;SHT30;58692;43.212;27.908;2022-07-06T14:43:42;27.88;58.02
71039;SHT30;58692;43.212;27.908;2022-07-06T14:46:08;27.87;57.69
71039;SHT30;58692;43.212;27.908;2022-07-06T14:48:34;27.93;57.13
71039;SHT30;58692;43.212;27.908;2022-07-06T14:50:59;27.97;56.92
71039;SHT30;58692;43.212;27.908;2022-07-06T14:53:25;27.98;57.04
71039;SHT30;58692;43.212;27.908;2022-07-06T14:55:51;27.91;58.35
71039;SHT30;58692;43.212;27.908;2022-07-06T14:58:17;27.98;58.18
71039;SHT30;58692;43.212;27.908;2022-07-06T15:00:44;27.95;58.59
71039;SHT30;58692;43.212;27.908;2022-07-06T15:03:10;27.65;58.56
71039;SHT30;58692;43.212;27.908;2022-07-06T15:05:36;27.76;58.64
71039;SHT30;58692;43.212;27.908;2022-07-06T15:08:02;27.77;58.52
71039;SHT30;58692;43.212;27.908;2022-07-06T15:10:28;27.77;58.41
71039;SHT30;58692;43.212;27.908;2022-07-06T15:12:53;27.64;58.27
71039;SHT30;58692;43.212;27.908;2022-07-06T15:15:19;27.63;59.00
71039;SHT30;58692;43.212;27.908;2022-07-06T15:17:44;27.54;59.48
71039;SHT30;58692;43.212;27.908;2022-07-06T15:20:11;27.73;58.67
71039;SHT30;58692;43.212;27.908;2022-07-06T15:22:37;27.85;58.55
71039;SHT30;58692;43.212;27.908;2022-07-06T15:25:03;27.93;58.23
71039;SHT30;58692;43.212;27.908;2022-07-06T15:27:29;27.65;58.84
71039;SHT30;58692;43.212;27.908;2022-07-06T15:29:55;27.61;56.88
71039;SHT30;58692;43.212;27.908;2022-07-06T15:32:21;27.70;58.10